Time;durP1;ratioP1;P1;durP2;ratioP2;P2;SDS_P1;SDS_P2;PMS_P1;PMS_P2;Temp;Humidity;BMP_temperature;BMP_pressure;BME280_temperature;BME280_humidity;BME280_pressure;Samples;Min_cycle;Max_cycle;Signal;HPM_P1;HPM_P2
2021/09/14 00:00:13;;;;;;;9.07;6.57;;;18.10;99.90;;;;;;5053329;28;20758;-57
2021/09/14 00:02:41;;;;;;;7.20;6.50;;;18.20;99.90;;;;;;5059565;28;20897;-54
2021/09/14 00:05:09;;;;;;;6.23;5.60;;;18.20;99.90;;;;;;5060321;28;20410;-56
2021/09/14 00:07:36;;;;;;;6.40;5.80;;;18.20;99.90;;;;;;5056149;28;20509;-53
2021/09/14 00:10:05;;;;;;;6.97;6.37;;;18.30;99.90;;;;;;5041201;28;20715;-56
2021/09/14 00:12:33;;;;;;;5.83;5.23;;;18.50;99.90;;;;;;5057860;28;20430;-55
2021/09/14 00:15:00;;;;;;;7.40;6.77;;;18.50;99.90;;;;;;5057707;28;20485;-56
2021/09/14 00:17:27;;;;;;;5.87;5.13;;;18.40;99.90;;;;;;5057948;28;20448;-55
2021/09/14 00:19:54;;;;;;;7.07;6.47;;;18.40;99.90;;;;;;5058544;28;20630;-58
2021/09/14 00:22:21;;;;;;;7.10;6.23;;;18.50;99.90;;;;;;5057736;28;20489;-57
2021/09/14 00:24:48;;;;;;;6.07;5.57;;;18.50;99.90;;;;;;5058200;28;20415;-57
2021/09/14 00:27:15;;;;;;;5.93;5.40;;;18.40;99.90;;;;;;5058302;28;20498;-55
2021/09/14 00:29:42;;;;;;;6.23;5.73;;;18.40;99.90;;;;;;5057815;28;21212;-55
2021/09/14 00:32:10;;;;;;;5.63;4.70;;;18.40;99.90;;;;;;5057600;28;20466;-54
2021/09/14 00:34:37;;;;;;;6.93;6.27;;;18.30;99.90;;;;;;5057543;28;20784;-56
2021/09/14 00:37:05;;;;;;;6.50;5.90;;;18.30;99.90;;;;;;5058358;28;20483;-57
2021/09/14 00:39:32;;;;;;;4.63;4.23;;;18.20;99.90;;;;;;5057802;28;20414;-53
2021/09/14 00:42:00;;;;;;;6.30;5.67;;;18.00;99.90;;;;;;5057205;28;20426;-53
2021/09/14 00:44:27;;;;;;;5.10;4.60;;;17.80;99.90;;;;;;5061492;28;20445;-52
2021/09/14 00:46:54;;;;;;;4.80;4.33;;;17.50;99.90;;;;;;5061714;28;20464;-53
2021/09/14 00:49:21;;;;;;;4.77;4.37;;;17.70;99.90;;;;;;5062021;28;20496;-54
2021/09/14 00:51:49;;;;;;;4.77;4.37;;;17.60;99.90;;;;;;5061404;28;20485;-50
2021/09/14 00:54:17;;;;;;;4.60;4.20;;;17.40;99.90;;;;;;5062137;28;20494;-51
2021/09/14 00:56:44;;;;;;;4.70;4.30;;;17.20;99.90;;;;;;5061127;28;20484;-57
2021/09/14 00:59:12;;;;;;;4.40;4.00;;;17.10;99.90;;;;;;5060584;28;20478;-55
2021/09/14 01:01:39;;;;;;;5.07;4.57;;;17.00;99.90;;;;;;5043787;28;20458;-56
2021/09/14 01:04:07;;;;;;;5.97;5.30;;;17.20;99.90;;;;;;5061139;28;20502;-55
2021/09/14 01:06:34;;;;;;;4.87;4.47;;;17.20;99.90;;;;;;5061077;28;20450;-55
2021/09/14 01:09:02;;;;;;;8.03;4.53;;;17.00;99.90;;;;;;5061169;28;20414;-52
2021/09/14 01:11:30;;;;;;;5.33;4.83;;;17.10;99.90;;;;;;5060941;28;20572;-52
2021/09/14 01:14:03;;;;;;;6.70;6.07;;;17.30;99.90;;;;;;5061244;28;20459;-53
2021/09/14 01:16:32;;;;;;;5.90;5.40;;;17.40;99.90;;;;;;5061351;28;20420;-55
2021/09/14 01:19:00;;;;;;;5.50;5.00;;;17.40;99.90;;;;;;5060506;28;20758;-49
2021/09/14 01:21:28;;;;;;;4.93;4.60;;;17.40;99.90;;;;;;5060466;28;20431;-56
2021/09/14 01:23:56;;;;;;;4.40;4.00;;;17.50;99.90;;;;;;5060864;28;20439;-55
2021/09/14 01:26:24;;;;;;;5.60;5.20;;;17.50;99.90;;;;;;5061098;28;20422;-52
2021/09/14 01:28:52;;;;;;;4.50;4.10;;;17.50;99.90;;;;;;5061302;28;20443;-54
2021/09/14 01:31:20;;;;;;;4.63;4.23;;;17.40;99.90;;;;;;5060741;28;20502;-56
2021/09/14 01:33:48;;;;;;;6.10;5.50;;;17.30;99.90;;;;;;5061360;28;20450;-58
2021/09/14 01:36:16;;;;;;;7.93;4.47;;;17.30;99.90;;;;;;5042813;28;20748;-54
2021/09/14 01:38:44;;;;;;;6.00;5.20;;;17.30;99.90;;;;;;5061354;28;20442;-54
2021/09/14 01:41:11;;;;;;;4.77;4.23;;;17.00;99.90;;;;;;5060443;28;20449;-55
2021/09/14 01:43:40;;;;;;;5.70;5.10;;;16.90;99.90;;;;;;5056800;28;20765;-51
2021/09/14 01:46:07;;;;;;;7.57;6.90;;;17.00;99.90;;;;;;5060632;28;20446;-54
2021/09/14 01:48:35;;;;;;;6.13;4.70;;;17.00;99.90;;;;;;5060711;28;20641;-54
2021/09/14 01:51:03;;;;;;;5.70;5.20;;;17.00;99.90;;;;;;5060721;28;20791;-50
2021/09/14 01:53:31;;;;;;;5.57;5.13;;;16.80;99.90;;;;;;5060214;28;20516;-56
2021/09/14 01:56:02;;;;;;;7.10;6.43;;;16.70;99.90;;;;;;5060524;28;20434;-55
2021/09/14 01:58:29;;;;;;;6.43;5.10;;;16.50;99.90;;;;;;5060223;28;20401;-53
2021/09/14 02:01:19;;;;;;;8.70;5.10;;;16.40;99.90;;;;;;5060344;28;20228;-52
2021/09/14 02:03:59;;;;;;;6.13;5.63;;;16.20;99.90;;;;;;5060035;28;20413;-56
2021/09/14 02:38:21;;;;;;;11.55;8.65;;;15.90;99.90;;;;;;5057797;28;20422;-55
2021/09/14 02:58:49;;;;;;;10.95;9.25;;;15.50;99.90;;;;;;5059040;28;20200;-52
2021/09/14 03:01:17;;;;;;;9.60;8.60;;;15.40;99.90;;;;;;5059484;28;20219;-53
2021/09/14 03:03:46;;;;;;;10.88;8.77;;;15.30;99.90;;;;;;5058806;28;20204;-55
2021/09/14 03:06:13;;;;;;;10.73;9.60;;;15.30;99.90;;;;;;5057838;28;20263;-55
2021/09/14 03:08:42;;;;;;;8.90;8.00;;;15.30;99.90;;;;;;5058699;28;20541;-52
2021/09/14 03:11:12;;;;;;;10.48;9.05;;;15.30;99.90;;;;;;5057953;28;20426;-53
2021/09/14 03:13:40;;;;;;;11.00;9.88;;;15.30;99.90;;;;;;5058276;28;20249;-55
2021/09/14 03:16:13;;;;;;;11.05;9.45;;;15.30;99.90;;;;;;5058068;28;20434;-53
2021/09/14 03:18:40;;;;;;;13.23;9.25;;;15.20;99.90;;;;;;5058847;28;20200;-52
2021/09/14 03:21:11;;;;;;;10.40;9.32;;;15.20;99.90;;;;;;5057993;28;20449;-55
2021/09/14 03:23:38;;;;;;;13.45;9.43;;;15.20;99.90;;;;;;5058598;28;20199;-56
2021/09/14 03:26:05;;;;;;;10.57;9.13;;;15.20;99.90;;;;;;5051884;28;20247;-58
2021/09/14 03:28:32;;;;;;;12.65;9.82;;;15.10;99.90;;;;;;5058436;28;20207;-55
2021/09/14 03:31:00;;;;;;;9.57;8.63;;;15.10;99.90;;;;;;5057045;28;20615;-58
2021/09/14 03:33:28;;;;;;;13.05;10.13;;;15.10;99.90;;;;;;5057802;28;20192;-55
2021/09/14 03:35:56;;;;;;;9.45;8.18;;;15.10;99.90;;;;;;5058539;28;20218;-47
2021/09/14 03:38:23;;;;;;;10.98;9.88;;;15.10;99.90;;;;;;5058264;28;20195;-55
2021/09/14 03:40:50;;;;;;;9.10;8.20;;;15.00;99.90;;;;;;5058843;28;20215;-53
2021/09/14 03:43:18;;;;;;;11.93;10.38;;;15.00;99.90;;;;;;5056903;28;20200;-54
2021/09/14 03:45:47;;;;;;;9.02;8.10;;;14.80;99.90;;;;;;5054864;28;20204;-54
2021/09/14 03:48:14;;;;;;;10.52;9.43;;;14.70;99.90;;;;;;5058266;28;20443;-56
2021/09/14 03:50:43;;;;;;;9.32;8.45;;;14.80;99.90;;;;;;5054344;28;20262;-57
2021/09/14 03:53:11;;;;;;;10.30;9.27;;;14.80;99.90;;;;;;5057660;28;20215;-54
2021/09/14 03:55:38;;;;;;;13.20;10.13;;;14.90;99.90;;;;;;5059315;28;20293;-54
2021/09/14 03:58:05;;;;;;;9.93;8.98;;;14.90;99.90;;;;;;5058793;28;20467;-55
2021/09/14 04:00:32;;;;;;;13.25;8.98;;;14.90;99.90;;;;;;5058328;28;20549;-58
2021/09/14 04:10:39;;;;;;;9.95;8.45;;;14.90;99.90;;;;;;5054488;28;20278;-55
2021/09/14 04:13:07;;;;;;;10.98;9.88;;;14.90;99.90;;;;;;5058144;28;20204;-55
2021/09/14 04:15:35;;;;;;;11.50;9.23;;;14.90;99.90;;;;;;5056167;28;20228;-51
2021/09/14 04:18:03;;;;;;;10.60;9.13;;;15.00;99.90;;;;;;5041747;28;20200;-55
2021/09/14 04:20:31;;;;;;;11.07;9.52;;;15.00;99.90;;;;;;5061504;28;20382;-59
2021/09/14 04:22:58;;;;;;;11.80;9.60;;;15.10;99.90;;;;;;5058695;28;20245;-55
2021/09/14 04:25:25;;;;;;;11.07;9.80;;;15.10;99.90;;;;;;5061459;28;20508;-53
2021/09/14 04:27:53;;;;;;;10.20;8.23;;;15.20;99.90;;;;;;5061759;28;20561;-56
2021/09/14 04:30:20;;;;;;;10.20;9.10;;;15.10;99.90;;;;;;5052613;28;20211;-52
2021/09/14 04:32:47;;;;;;;11.45;9.80;;;15.10;99.90;;;;;;5053791;28;20199;-57
2021/09/14 04:35:14;;;;;;;10.43;9.52;;;15.00;99.90;;;;;;5052543;28;20600;-54
2021/09/14 04:37:42;;;;;;;12.13;10.25;;;15.00;99.90;;;;;;5034094;28;20390;-59
2021/09/14 04:40:10;;;;;;;11.32;9.70;;;15.00;99.90;;;;;;5061879;28;20196;-58
2021/09/14 04:42:37;;;;;;;18.63;10.75;;;15.00;99.90;;;;;;5061525;28;20228;-59
2021/09/14 04:45:05;;;;;;;12.55;10.32;;;14.90;99.90;;;;;;5062144;28;20199;-57
2021/09/14 04:47:32;;;;;;;13.90;9.32;;;14.70;99.90;;;;;;5060556;28;20207;-53
2021/09/14 04:50:00;;;;;;;10.85;9.82;;;14.80;99.90;;;;;;5058986;28;20429;-56
2021/09/14 04:52:27;;;;;;;11.70;9.77;;;14.90;99.90;;;;;;5056259;28;20223;-54
2021/09/14 04:54:54;;;;;;;10.32;9.32;;;14.80;99.90;;;;;;5061644;28;20264;-57
2021/09/14 04:57:21;;;;;;;9.77;8.77;;;14.60;99.90;;;;;;5043840;28;20462;-56
2021/09/14 04:59:49;;;;;;;11.48;7.97;;;14.60;99.90;;;;;;5051754;28;20552;-56
2021/09/14 05:02:16;;;;;;;11.32;8.25;;;14.60;99.90;;;;;;5059516;28;20282;-56
2021/09/14 05:04:43;;;;;;;8.65;7.68;;;14.70;99.90;;;;;;5061431;28;20269;-56
2021/09/14 05:07:10;;;;;;;11.70;9.00;;;14.90;99.90;;;;;;5060059;28;20211;-54
2021/09/14 05:09:38;;;;;;;10.43;7.60;;;15.10;99.90;;;;;;5060234;28;20223;-55
2021/09/14 05:12:05;;;;;;;7.22;6.53;;;15.20;99.90;;;;;;5059208;28;20239;-55
2021/09/14 05:14:32;;;;;;;7.85;7.07;;;15.30;99.90;;;;;;5058030;28;20233;-55
2021/09/14 05:16:59;;;;;;;8.43;7.57;;;15.40;99.90;;;;;;5060285;28;20519;-56
2021/09/14 05:19:32;;;;;;;8.10;6.45;;;15.20;99.90;;;;;;5059613;28;20293;-57
2021/09/14 05:21:59;;;;;;;9.63;7.40;;;15.30;99.90;;;;;;5057216;28;20537;-54
2021/09/14 05:24:30;;;;;;;9.02;7.78;;;15.30;99.90;;;;;;5059590;28;20209;-54
2021/09/14 05:26:57;;;;;;;7.28;6.60;;;15.40;99.90;;;;;;5056023;28;20473;-52
2021/09/14 05:29:26;;;;;;;8.57;7.78;;;15.60;99.90;;;;;;5056165;28;20212;-56
2021/09/14 05:31:55;;;;;;;8.27;7.03;;;15.90;99.90;;;;;;5060328;28;20426;-55
2021/09/14 05:34:23;;;;;;;6.77;6.07;;;15.90;99.90;;;;;;5055926;28;20453;-54
2021/09/14 05:36:51;;;;;;;6.80;6.17;;;16.10;99.90;;;;;;5055929;28;20493;-56
2021/09/14 05:39:18;;;;;;;7.87;7.17;;;16.20;99.90;;;;;;5059464;28;20463;-51
2021/09/14 05:41:45;;;;;;;7.97;7.13;;;16.20;99.90;;;;;;5059478;28;20459;-55
2021/09/14 05:44:13;;;;;;;10.77;8.77;;;16.50;99.90;;;;;;5059163;28;20421;-55
2021/09/14 05:46:40;;;;;;;11.10;9.10;;;16.70;99.90;;;;;;5059346;28;20527;-54
2021/09/14 05:49:07;;;;;;;15.50;12.30;;;16.70;99.90;;;;;;5059354;28;20502;-55
2021/09/14 05:51:34;;;;;;;16.20;11.87;;;16.70;99.90;;;;;;5059414;28;20828;-54
2021/09/14 05:54:01;;;;;;;13.57;10.97;;;16.60;99.90;;;;;;5059405;28;20431;-58
2021/09/14 05:56:31;;;;;;;13.17;11.67;;;16.50;99.90;;;;;;5056067;28;20559;-57
2021/09/14 05:59:01;;;;;;;11.97;9.50;;;16.60;99.90;;;;;;5061296;28;20418;-55
2021/09/14 06:01:29;;;;;;;12.30;9.83;;;16.80;99.90;;;;;;5053159;28;20453;-54
2021/09/14 06:03:56;;;;;;;12.57;9.27;;;17.00;99.90;;;;;;5056155;28;20767;-53
2021/09/14 06:06:23;;;;;;;10.90;8.73;;;17.20;99.90;;;;;;5059242;28;20440;-59
2021/09/14 06:08:51;;;;;;;12.40;9.00;;;17.30;99.90;;;;;;5053771;28;20737;-50
2021/09/14 06:11:18;;;;;;;12.63;10.17;;;17.30;99.90;;;;;;5056717;28;20439;-57
2021/09/14 06:13:46;;;;;;;10.23;9.10;;;17.20;99.90;;;;;;5053843;28;20431;-57
2021/09/14 06:16:14;;;;;;;9.47;8.00;;;17.50;99.90;;;;;;5053227;28;20538;-54
2021/09/14 06:18:41;;;;;;;8.80;8.00;;;18.40;99.90;;;;;;5056014;28;20482;-59
2021/09/14 06:21:10;;;;;;;9.47;7.40;;;19.80;99.90;;;;;;5054837;28;20477;-53
2021/09/14 06:23:37;;;;;;;9.30;7.17;;;20.40;99.90;;;;;;5051211;28;20432;-53
2021/09/14 06:26:04;;;;;;;9.60;6.90;;;21.10;99.90;;;;;;5036730;28;20415;-54
2021/09/14 06:28:31;;;;;;;8.20;7.40;;;21.10;99.90;;;;;;5052711;28;20421;-56
2021/09/14 06:30:59;;;;;;;6.80;6.17;;;21.10;99.90;;;;;;5054192;28;20816;-52
2021/09/14 06:33:26;;;;;;;9.33;7.93;;;21.30;99.90;;;;;;5051086;28;20450;-56
2021/09/14 06:35:53;;;;;;;7.63;6.83;;;21.30;99.90;;;;;;5048832;28;20501;-54
2021/09/14 06:38:20;;;;;;;6.90;6.30;;;20.60;99.90;;;;;;5040897;28;20695;-57
2021/09/14 06:40:48;;;;;;;9.60;7.77;;;20.20;99.90;;;;;;5057428;28;20467;-52
2021/09/14 06:43:15;;;;;;;7.93;7.33;;;20.80;99.90;;;;;;5059426;28;20620;-52
2021/09/14 06:45:43;;;;;;;9.50;8.20;;;21.80;99.90;;;;;;5059907;28;20464;-53
2021/09/14 06:48:13;;;;;;;6.33;5.83;;;21.80;99.90;;;;;;5058970;28;20437;-49
2021/09/14 06:50:41;;;;;;;7.47;6.83;;;22.00;99.90;;;;;;5053282;28;20432;-53
2021/09/14 06:53:09;;;;;;;6.67;6.17;;;22.90;99.90;;;;;;5058689;28;20412;-58
2021/09/14 06:55:37;;;;;;;8.00;7.20;;;24.40;99.90;;;;;;5058432;28;20483;-49
2021/09/14 06:58:04;;;;;;;7.07;6.57;;;25.00;99.90;;;;;;5059044;28;20432;-54
2021/09/14 07:00:31;;;;;;;7.80;7.20;;;24.90;99.90;;;;;;5058268;28;20501;-53
2021/09/14 07:02:59;;;;;;;7.43;6.73;;;24.90;99.90;;;;;;5058736;28;20451;-55
2021/09/14 07:05:26;;;;;;;6.70;6.20;;;25.60;99.90;;;;;;5058451;28;20669;-53
2021/09/14 07:07:53;;;;;;;6.77;6.20;;;24.90;99.90;;;;;;5041470;28;20440;-53
2021/09/14 07:10:20;;;;;;;8.10;7.50;;;23.80;99.90;;;;;;5052905;28;20498;-55
2021/09/14 07:12:48;;;;;;;6.00;5.50;;;23.30;99.90;;;;;;5058869;28;20444;-53
2021/09/14 07:15:15;;;;;;;7.37;6.70;;;22.70;99.90;;;;;;5057774;28;20674;-54
2021/09/14 07:17:43;;;;;;;9.10;7.43;;;22.40;99.90;;;;;;5058700;28;20582;-51
2021/09/14 07:20:10;;;;;;;9.80;6.23;;;22.50;99.90;;;;;;5058706;28;20479;-56
2021/09/14 07:22:38;;;;;;;7.30;6.60;;;23.90;99.90;;;;;;5058404;28;20817;-55
2021/09/14 07:25:06;;;;;;;6.93;6.43;;;23.80;99.90;;;;;;5058569;28;20506;-56
2021/09/14 07:27:34;;;;;;;6.30;5.70;;;24.10;99.90;;;;;;5054126;28;20487;-57
2021/09/14 07:30:01;;;;;;;7.70;7.00;;;24.10;99.90;;;;;;5058518;28;20484;-57
2021/09/14 07:32:29;;;;;;;8.03;7.40;;;24.10;99.90;;;;;;5053497;28;20716;-52
2021/09/14 07:34:56;;;;;;;7.07;6.60;;;24.30;99.90;;;;;;5059403;28;20925;-51
2021/09/14 07:37:24;;;;;;;6.63;6.03;;;24.00;99.90;;;;;;5059243;28;20437;-54
2021/09/14 07:39:51;;;;;;;6.87;6.27;;;24.10;99.90;;;;;;5058940;28;20494;-57
2021/09/14 07:42:18;;;;;;;7.10;6.57;;;24.20;99.90;;;;;;5057698;28;20528;-57
2021/09/14 07:44:45;;;;;;;6.90;6.40;;;24.10;99.90;;;;;;5058154;28;20403;-52
2021/09/14 07:47:13;;;;;;;8.33;7.53;;;24.40;99.90;;;;;;5058011;28;20437;-54
2021/09/14 07:49:40;;;;;;;7.03;6.33;;;24.90;99.90;;;;;;5058110;28;20408;-54
2021/09/14 07:52:07;;;;;;;6.47;6.07;;;25.00;99.90;;;;;;5056059;28;20632;-54
2021/09/14 07:54:34;;;;;;;7.37;6.87;;;26.30;99.90;;;;;;5062157;28;20528;-55
2021/09/14 07:57:01;;;;;;;7.77;7.37;;;27.40;99.60;;;;;;5061991;28;20507;-56
2021/09/14 07:59:31;;;;;;;8.33;7.63;;;28.10;98.60;;;;;;5062262;28;20455;-55
2021/09/14 08:01:58;;;;;;;7.20;6.70;;;27.30;99.20;;;;;;5062109;28;20502;-55
2021/09/14 08:04:26;;;;;;;7.23;6.73;;;26.70;99.30;;;;;;5062222;28;20714;-52
2021/09/14 08:06:53;;;;;;;7.20;6.70;;;25.90;99.90;;;;;;5061926;28;20487;-55
2021/09/14 08:09:21;;;;;;;10.50;7.03;;;26.10;99.90;;;;;;5053126;28;20440;-50
2021/09/14 08:11:48;;;;;;;8.10;7.40;;;26.80;99.70;;;;;;5061906;28;20617;-52
2021/09/14 08:14:16;;;;;;;7.40;6.87;;;26.90;99.30;;;;;;5061353;28;20674;-53
2021/09/14 08:16:43;;;;;;;7.93;7.23;;;26.90;99.10;;;;;;5061745;28;20509;-56
2021/09/14 08:19:11;;;;;;;7.80;7.20;;;25.10;99.90;;;;;;5061377;28;20479;-54
2021/09/14 08:21:38;;;;;;;11.40;7.10;;;25.80;99.90;;;;;;5060808;28;20460;-56
2021/09/14 08:24:08;;;;;;;8.47;7.60;;;26.10;99.90;;;;;;5061385;28;20597;-54
2021/09/14 08:26:36;;;;;;;8.43;7.57;;;26.60;99.70;;;;;;5057587;28;20449;-53
2021/09/14 08:29:04;;;;;;;7.53;7.03;;;26.30;99.70;;;;;;5061155;28;20541;-57
2021/09/14 08:31:31;;;;;;;8.60;7.83;;;25.70;99.90;;;;;;5061320;28;20460;-60
2021/09/14 08:33:59;;;;;;;7.57;7.07;;;25.30;99.90;;;;;;5061025;28;20434;-59
2021/09/14 08:36:26;;;;;;;7.20;6.77;;;25.60;99.90;;;;;;5056576;28;20550;-52
2021/09/14 08:38:54;;;;;;;7.40;6.90;;;26.40;99.20;;;;;;5061069;28;20493;-54
2021/09/14 08:41:21;;;;;;;7.50;7.00;;;26.80;98.10;;;;;;5060755;28;20448;-54
2021/09/14 08:43:50;;;;;;;6.90;6.50;;;27.30;97.10;;;;;;5061707;28;20494;-57
2021/09/14 08:46:19;;;;;;;7.77;7.00;;;26.30;97.80;;;;;;5061068;28;20487;-56
2021/09/14 08:48:47;;;;;;;6.37;6.00;;;26.40;98.00;;;;;;5060767;28;20436;-54
2021/09/14 08:51:15;;;;;;;7.03;6.53;;;27.30;97.60;;;;;;5060494;28;20465;-57
2021/09/14 08:53:43;;;;;;;7.13;6.67;;;28.50;95.70;;;;;;5060602;28;20439;-57
2021/09/14 08:56:11;;;;;;;7.47;6.87;;;28.50;95.00;;;;;;5059033;28;20489;-58
2021/09/14 08:58:38;;;;;;;6.83;6.43;;;28.40;95.70;;;;;;5057105;28;20440;-61
2021/09/14 09:01:11;;;;;;;6.47;6.10;;;29.10;93.90;;;;;;5060998;28;20462;-56
2021/09/14 09:03:38;;;;;;;7.60;7.07;;;28.10;93.80;;;;;;5059812;28;20445;-58
2021/09/14 09:06:06;;;;;;;7.50;7.00;;;26.40;96.40;;;;;;5061373;28;20440;-55
2021/09/14 09:08:34;;;;;;;6.97;6.47;;;25.60;97.90;;;;;;5060202;28;20657;-57
2021/09/14 09:11:07;;;;;;;10.40;6.40;;;26.80;96.80;;;;;;5060279;28;20783;-56
2021/09/14 09:13:47;;;;;;;6.30;5.90;;;26.90;95.40;;;;;;5060621;28;20492;-55
2021/09/14 09:16:22;;;;;;;6.90;6.40;;;26.90;95.60;;;;;;5059663;28;20855;-59
2021/09/14 09:18:56;;;;;;;7.73;7.00;;;26.50;96.20;;;;;;5060981;28;20655;-58
2021/09/14 09:21:33;;;;;;;6.13;5.83;;;25.00;97.30;;;;;;5055594;28;20456;-51
2021/09/14 09:24:03;;;;;;;7.03;6.63;;;24.40;99.30;;;;;;5060091;28;20818;-55
2021/09/14 09:26:37;;;;;;;7.53;7.07;;;24.60;99.50;;;;;;5056394;28;20425;-55
2021/09/14 09:29:07;;;;;;;6.90;6.50;;;24.20;99.90;;;;;;5057188;28;20525;-56
2021/09/14 09:31:37;;;;;;;6.93;6.53;;;23.90;99.90;;;;;;5060180;28;20465;-48
2021/09/14 09:34:06;;;;;;;8.20;7.70;;;24.00;99.90;;;;;;5060041;28;20700;-55
2021/09/14 09:36:40;;;;;;;6.93;5.50;;;23.90;99.80;;;;;;5053990;28;20753;-56
2021/09/14 09:39:13;;;;;;;6.30;5.80;;;24.40;99.50;;;;;;5041071;28;20429;-51
2021/09/14 09:41:53;;;;;;;7.20;6.80;;;23.70;99.90;;;;;;5054659;28;20483;-57
2021/09/14 09:44:20;;;;;;;6.13;5.63;;;23.20;99.90;;;;;;5055607;28;20403;-54
2021/09/14 09:46:55;;;;;;;6.33;5.93;;;23.00;99.90;;;;;;5057346;28;20469;-55
2021/09/14 09:49:23;;;;;;;7.17;6.57;;;23.20;99.90;;;;;;5052818;28;20456;-57
2021/09/14 09:51:52;;;;;;;6.23;5.80;;;22.80;99.90;;;;;;5059469;28;20501;-59
2021/09/14 09:54:20;;;;;;;6.93;6.53;;;22.80;99.90;;;;;;5060108;28;20771;-59
2021/09/14 09:56:51;;;;;;;7.03;6.53;;;22.70;99.90;;;;;;5059620;28;20710;-55
2021/09/14 09:59:19;;;;;;;6.50;5.90;;;22.80;99.90;;;;;;5059501;28;20801;-52
2021/09/14 10:02:13;;;;;;;7.33;5.30;;;22.90;99.90;;;;;;5056575;28;20436;-53
2021/09/14 10:05:05;;;;;;;6.57;5.80;;;22.80;99.90;;;;;;5058081;28;20437;-52
2021/09/14 10:07:34;;;;;;;6.50;6.00;;;22.70;99.90;;;;;;5048201;28;20785;-58
2021/09/14 10:10:03;;;;;;;6.67;6.17;;;22.60;99.90;;;;;;5058776;28;20457;-49
2021/09/14 10:12:33;;;;;;;7.30;6.70;;;22.80;99.90;;;;;;5059318;28;20675;-56
2021/09/14 10:15:02;;;;;;;9.30;6.40;;;22.60;99.90;;;;;;5058330;28;20411;-50
2021/09/14 10:17:31;;;;;;;7.17;6.50;;;22.50;99.90;;;;;;5059043;28;20838;-51
2021/09/14 10:20:10;;;;;;;6.47;6.00;;;22.50;99.90;;;;;;5059493;28;20408;-54
2021/09/14 10:22:38;;;;;;;6.77;6.27;;;22.60;99.90;;;;;;5058823;28;20580;-57
2021/09/14 10:25:08;;;;;;;6.30;5.90;;;22.60;99.90;;;;;;5059165;28;20731;-56
2021/09/14 10:27:39;;;;;;;5.73;5.33;;;22.70;99.90;;;;;;5055426;28;20438;-55
2021/09/14 10:30:09;;;;;;;5.90;5.40;;;22.80;99.90;;;;;;5059943;28;20475;-56
2021/09/14 10:32:42;;;;;;;5.40;5.10;;;22.90;99.90;;;;;;5059974;28;20464;-56
2021/09/14 10:35:11;;;;;;;6.33;5.93;;;22.70;99.90;;;;;;5059729;28;20416;-51
2021/09/14 10:37:39;;;;;;;5.40;5.10;;;22.60;99.90;;;;;;5059621;28;20488;-52
2021/09/14 10:40:13;;;;;;;6.67;6.17;;;22.40;99.90;;;;;;5059867;28;20403;-57
2021/09/14 10:42:43;;;;;;;5.50;5.20;;;22.50;99.90;;;;;;5059790;28;20750;-54
2021/09/14 10:45:14;;;;;;;5.90;5.50;;;22.50;99.90;;;;;;5059462;28;20667;-56
2021/09/14 10:47:48;;;;;;;5.80;5.40;;;22.50;99.90;;;;;;5058983;28;20636;-52
2021/09/14 10:50:30;;;;;;;6.70;6.10;;;22.50;99.90;;;;;;5059136;28;20416;-54
2021/09/14 10:53:00;;;;;;;6.40;6.00;;;22.50;99.90;;;;;;5058636;28;20735;-57
2021/09/14 10:55:28;;;;;;;6.00;5.50;;;22.50;99.90;;;;;;5054130;28;20423;-52
2021/09/14 10:58:01;;;;;;;6.67;6.10;;;22.80;99.90;;;;;;5059055;28;20419;-54
2021/09/14 11:00:34;;;;;;;5.90;5.40;;;23.00;99.90;;;;;;5059113;28;20495;-54
2021/09/14 11:03:06;;;;;;;6.30;5.90;;;23.20;99.90;;;;;;5059092;28;20746;-54
2021/09/14 11:05:37;;;;;;;6.13;5.73;;;23.30;99.90;;;;;;5058995;28;20732;-56
2021/09/14 11:08:06;;;;;;;7.00;6.50;;;23.50;99.90;;;;;;5059434;28;20490;-56
2021/09/14 11:10:41;;;;;;;6.20;5.80;;;23.70;99.90;;;;;;5059158;28;20419;-54
2021/09/14 11:13:17;;;;;;;6.43;6.03;;;23.80;99.90;;;;;;5041646;28;20486;-55
2021/09/14 11:15:44;;;;;;;6.20;5.67;;;23.90;99.90;;;;;;5051299;28;20407;-53
2021/09/14 11:18:12;;;;;;;7.80;7.20;;;24.10;99.90;;;;;;5058572;28;20499;-53
2021/09/14 11:20:39;;;;;;;7.87;7.30;;;24.20;99.90;;;;;;5059734;28;20781;-57
2021/09/14 11:23:07;;;;;;;6.80;6.30;;;24.50;99.90;;;;;;5058696;28;20621;-55
2021/09/14 11:25:34;;;;;;;7.10;6.60;;;24.80;99.90;;;;;;5043610;28;20451;-57
2021/09/14 11:28:11;;;;;;;6.63;6.20;;;24.80;99.90;;;;;;5053473;28;20454;-54
2021/09/14 11:30:40;;;;;;;7.13;6.63;;;24.80;99.90;;;;;;5047606;28;20481;-56
2021/09/14 11:33:08;;;;;;;7.20;6.50;;;24.80;99.90;;;;;;5045694;28;20408;-57
2021/09/14 11:35:36;;;;;;;5.93;5.63;;;24.80;99.90;;;;;;5045121;28;20528;-55
2021/09/14 11:38:08;;;;;;;6.83;6.33;;;24.90;99.90;;;;;;5045034;28;20459;-56
2021/09/14 11:40:50;;;;;;;6.20;5.90;;;25.20;99.90;;;;;;5043124;28;20432;-55
2021/09/14 11:43:32;;;;;;;6.33;5.83;;;25.30;99.90;;;;;;5048620;28;20449;-55
2021/09/14 11:46:12;;;;;;;6.63;6.03;;;25.10;99.90;;;;;;5047780;28;20814;-56
2021/09/14 11:48:41;;;;;;;6.37;5.97;;;24.40;99.90;;;;;;5041531;28;20429;-56
2021/09/14 11:51:12;;;;;;;7.20;6.70;;;24.00;99.90;;;;;;5040628;28;20487;-56
2021/09/14 11:53:48;;;;;;;6.87;6.37;;;24.00;99.90;;;;;;5054493;28;20502;-49
2021/09/14 11:56:18;;;;;;;6.57;6.07;;;24.00;99.90;;;;;;5056666;28;20573;-54
2021/09/14 11:58:47;;;;;;;6.60;6.10;;;24.10;99.90;;;;;;5052454;28;20478;-56
2021/09/14 12:01:18;;;;;;;7.50;6.90;;;24.20;99.90;;;;;;5034056;28;20610;-54
2021/09/14 12:03:45;;;;;;;6.23;5.83;;;24.40;99.90;;;;;;5059139;28;20440;-56
2021/09/14 12:06:30;;;;;;;6.90;6.50;;;24.50;99.90;;;;;;5058047;28;20486;-58
2021/09/14 12:08:59;;;;;;;6.77;6.37;;;24.40;99.90;;;;;;5041978;28;20668;-58
2021/09/14 12:11:28;;;;;;;7.13;6.53;;;24.40;99.90;;;;;;5040335;28;20506;-58
2021/09/14 12:13:57;;;;;;;7.07;6.57;;;24.40;99.90;;;;;;5047282;28;20517;-55
2021/09/14 12:16:27;;;;;;;6.50;6.00;;;24.30;99.90;;;;;;5057990;28;20485;-54
2021/09/14 12:18:58;;;;;;;7.80;7.20;;;24.30;99.90;;;;;;5033643;28;20450;-55
2021/09/14 12:21:26;;;;;;;7.93;7.30;;;24.50;99.90;;;;;;4971788;28;20497;-51
2021/09/14 12:23:56;;;;;;;7.70;7.20;;;24.70;99.90;;;;;;4976440;28;20415;-57
2021/09/14 12:26:39;;;;;;;6.40;5.97;;;25.10;99.90;;;;;;4973631;28;20491;-56
2021/09/14 12:29:09;;;;;;;7.43;6.90;;;25.40;99.90;;;;;;4973468;28;20418;-59
2021/09/14 12:31:37;;;;;;;7.50;7.10;;;25.60;99.20;;;;;;4977823;28;20527;-57
2021/09/14 12:34:05;;;;;;;6.70;6.30;;;25.70;99.50;;;;;;4967609;28;20437;-54
2021/09/14 12:36:32;;;;;;;6.40;6.00;;;26.00;99.30;;;;;;4972412;28;20524;-55
2021/09/14 12:38:59;;;;;;;6.50;6.00;;;26.30;98.60;;;;;;4971278;28;20767;-55
2021/09/14 12:41:27;;;;;;;8.27;7.67;;;26.40;98.90;;;;;;4972878;28;20795;-55
2021/09/14 12:43:54;;;;;;;7.40;6.90;;;26.30;98.60;;;;;;4974846;28;20467;-57
2021/09/14 12:46:21;;;;;;;7.60;7.00;;;26.40;98.90;;;;;;4970248;28;20415;-54
2021/09/14 12:48:48;;;;;;;7.37;6.97;;;26.30;97.60;;;;;;4976396;28;20440;-56
2021/09/14 12:51:16;;;;;;;8.13;7.60;;;26.20;97.80;;;;;;4973352;28;20460;-54
2021/09/14 12:53:43;;;;;;;8.07;7.47;;;26.20;98.30;;;;;;4981477;28;20439;-56
2021/09/14 12:56:11;;;;;;;7.27;6.77;;;26.10;97.80;;;;;;4976283;28;20642;-58
2021/09/14 12:58:46;;;;;;;7.50;7.00;;;25.70;98.40;;;;;;4968816;28;20415;-55
2021/09/14 13:01:14;;;;;;;7.57;7.07;;;25.40;99.00;;;;;;4981409;28;20458;-57
2021/09/14 13:03:42;;;;;;;5.90;5.60;;;25.20;99.10;;;;;;4974024;28;20474;-53
2021/09/14 13:06:11;;;;;;;7.40;7.00;;;25.20;99.70;;;;;;4972021;28;20637;-54
2021/09/14 13:08:39;;;;;;;7.87;7.37;;;24.90;99.90;;;;;;4966306;28;20448;-58
2021/09/14 13:11:06;;;;;;;8.17;7.50;;;24.60;99.90;;;;;;4962719;28;20792;-57
2021/09/14 13:16:19;;;;;;;7.03;6.63;;;24.10;99.90;;;;;;4970522;28;20450;-57
2021/09/14 13:18:49;;;;;;;7.57;7.07;;;24.10;99.90;;;;;;4970780;28;20445;-54
2021/09/14 13:21:18;;;;;;;7.53;7.13;;;24.00;99.90;;;;;;4977577;28;20821;-49
2021/09/14 13:23:49;;;;;;;8.13;7.63;;;24.00;99.90;;;;;;4971334;28;20419;-58
2021/09/14 13:26:18;;;;;;;8.10;7.37;;;24.30;99.90;;;;;;4969133;28;20736;-52
2021/09/14 13:28:45;;;;;;;7.27;6.67;;;24.40;99.90;;;;;;4970168;28;20488;-51
2021/09/14 13:31:12;;;;;;;10.03;9.30;;;24.30;99.90;;;;;;4966379;28;20494;-53
2021/09/14 13:33:39;;;;;;;7.70;7.10;;;24.10;99.90;;;;;;4978893;28;20415;-56
2021/09/14 13:36:07;;;;;;;8.00;7.40;;;23.80;99.90;;;;;;4974094;28;20970;-55
2021/09/14 13:38:36;;;;;;;6.90;6.37;;;23.60;99.90;;;;;;4970832;28;20423;-54
2021/09/14 13:41:16;;;;;;;7.33;6.73;;;23.70;99.90;;;;;;4973704;28;20808;-55
2021/09/14 13:46:15;;;;;;;8.00;7.50;;;23.70;99.90;;;;;;4976676;28;20436;-56
2021/09/14 13:48:50;;;;;;;7.93;7.27;;;23.70;99.90;;;;;;4977835;28;20447;-56
2021/09/14 13:51:24;;;;;;;7.13;6.60;;;23.50;99.90;;;;;;4972076;28;20628;-54
2021/09/14 13:53:52;;;;;;;8.50;7.87;;;23.50;99.90;;;;;;4976734;28;20742;-53
2021/09/14 13:56:22;;;;;;;7.37;6.90;;;23.60;99.90;;;;;;4966269;28;20419;-53